Time;durP1;ratioP1;P1;durP2;ratioP2;P2;SDS_P1;SDS_P2;PMS_P1;PMS_P2;Temp;Humidity;BMP_temperature;BMP_pressure;BME280_temperature;BME280_humidity;BME280_pressure;Samples;Min_cycle;Max_cycle;Signal;HPM_P1;HPM_P2
2023/10/03 00:00:24;;;;;;;;;;;16.60;55.40;;;12.42;100.00;95891.94;4991643;28;19924;-48
2023/10/03 00:02:54;;;;;;;;;;;16.60;55.50;;;12.40;100.00;95896.75;5011362;28;20575;-48
2023/10/03 00:05:28;;;;;;;;;;;16.60;55.50;;;12.36;100.00;95890.34;5011369;28;20371;-45
2023/10/03 00:08:00;;;;;;;;;;;16.50;55.50;;;12.33;100.00;95890.06;5009482;28;20335;-44
2023/10/03 00:10:28;;;;;;;;;;;16.50;55.50;;;12.29;100.00;95887.16;5019503;22;20008;-55
2023/10/03 00:12:54;;;;;;;;;;;16.40;55.60;;;12.32;100.00;95894.63;4986427;28;19920;-50
2023/10/03 00:15:24;;;;;;;;;;;16.40;55.60;;;12.29;100.00;95884.47;4988260;28;19909;-51
2023/10/03 00:17:51;;;;;;;;;;;16.40;55.70;;;12.27;100.00;95889.28;4985886;28;20392;-49
2023/10/03 00:20:18;;;;;;;;;;;16.40;55.80;;;12.26;100.00;95885.00;4989761;28;19964;-48
2023/10/03 00:22:45;;;;;;;;;;;16.40;55.80;;;12.21;100.00;95893.81;4991633;28;19913;-50
2023/10/03 00:25:24;;;;;;;;;;;16.40;55.90;;;12.21;100.00;95891.13;4990330;28;20287;-49
2023/10/03 00:27:57;;;;;;;;;;;16.30;55.90;;;12.17;100.00;95891.94;4991369;28;19972;-48
2023/10/03 00:30:25;;;;;;;;;;;16.30;56.00;;;12.20;100.00;95884.19;4989976;28;20350;-49
2023/10/03 00:32:58;;;;;;;;;;;16.40;56.10;;;12.22;100.00;95889.25;4991536;28;19909;-48
2023/10/03 00:35:26;;;;;;;;;;;16.30;56.10;;;12.28;100.00;95877.50;4991499;28;19909;-50
2023/10/03 00:37:53;;;;;;;;;;;16.30;56.20;;;12.26;100.00;95883.13;4985470;28;19914;-50
2023/10/03 00:42:54;;;;;;;;;;;16.40;56.30;;;12.30;100.00;95879.94;4990414;28;19960;-51
2023/10/03 00:45:24;;;;;;;;;;;16.40;56.40;;;12.31;100.00;95873.50;4986280;28;19935;-48
2023/10/03 00:48:00;;;;;;;;;;;16.40;56.40;;;12.34;100.00;95881.00;4991687;28;19910;-48
2023/10/03 00:50:29;;;;;;;;;;;16.40;56.40;;;12.32;100.00;95875.13;4989847;28;19916;-46
2023/10/03 00:53:04;;;;;;;;;;;16.40;56.40;;;12.27;100.00;95866.03;4991361;28;20326;-46
2023/10/03 00:55:33;;;;;;;;;;;16.30;56.40;;;12.24;100.00;95871.91;4986335;28;19913;-48
2023/10/03 01:00:39;;;;;;;;;;;16.40;56.50;;;12.22;100.00;95867.91;4989987;28;19913;-49
2023/10/03 01:03:27;;;;;;;;;;;16.30;56.50;;;12.30;100.00;95872.72;4991117;28;19996;-51
2023/10/03 01:05:54;;;;;;;;;;;16.40;56.60;;;12.27;100.00;95863.34;5006153;28;19909;-49
2023/10/03 01:08:23;;;;;;;;;;;16.40;56.70;;;12.26;100.00;95860.97;4990237;28;19964;-48
2023/10/03 01:10:50;;;;;;;;;;;16.30;56.60;;;12.21;100.00;95866.31;4990613;28;19917;-48
2023/10/03 01:13:19;;;;;;;;;;;16.30;56.60;;;12.23;100.00;95856.97;4986214;28;20455;-50
2023/10/03 01:15:50;;;;;;;;;;;16.30;56.60;;;12.22;100.00;95858.03;4991223;28;20040;-48
2023/10/03 01:18:21;;;;;;;;;;;16.30;56.70;;;12.25;100.00;95857.50;4989724;28;20304;-50
2023/10/03 01:21:13;;;;;;;;;;;16.30;56.70;;;12.26;100.00;95860.97;4993821;28;19917;-50
2023/10/03 01:23:39;;;;;;;;;;;16.30;56.80;;;12.37;100.00;95859.09;4994457;28;20398;-49
2023/10/03 01:26:07;;;;;;;;;;;16.30;56.90;;;12.39;100.00;95856.94;4993494;28;20425;-47
2023/10/03 01:28:34;;;;;;;;;;;16.30;56.90;;;12.40;100.00;95858.53;4994393;28;19909;-46
2023/10/03 01:31:01;;;;;;;;;;;16.40;56.90;;;12.37;100.00;95848.41;4992857;28;19996;-49
2023/10/03 01:33:30;;;;;;;;;;;16.40;56.90;;;12.32;100.00;95846.53;4994329;28;19910;-48
2023/10/03 01:35:56;;;;;;;;;;;16.40;56.80;;;12.31;100.00;95844.13;4993047;28;19910;-53
2023/10/03 01:38:22;;;;;;;;;;;16.40;56.80;;;12.23;100.00;95842.81;4992462;28;19917;-49
2023/10/03 01:40:53;;;;;;;;;;;16.40;56.80;;;12.21;100.00;95848.41;4993604;28;20407;-48
2023/10/03 01:43:19;;;;;;;;;;;16.30;56.80;;;12.18;100.00;95848.94;4992971;28;19913;-46
2023/10/03 01:45:45;;;;;;;;;;;16.30;56.80;;;12.16;100.00;95842.25;4988488;28;19914;-49
2023/10/03 01:48:12;;;;;;;;;;;16.30;56.80;;;12.13;100.00;95840.94;4990807;28;19909;-46
2023/10/03 01:50:39;;;;;;;;;;;16.30;56.90;;;12.11;100.00;95842.28;4993438;28;19913;-49
2023/10/03 01:53:07;;;;;;;;;;;16.30;56.90;;;12.08;100.00;95843.59;4994269;28;19910;-46
2023/10/03 01:55:34;;;;;;;;;;;16.30;56.90;;;12.09;100.00;95837.19;4992898;28;19940;-49
2023/10/03 01:58:00;;;;;;;;;;;16.20;57.00;;;12.09;100.00;95841.72;4993706;28;20047;-48
2023/10/03 02:00:26;;;;;;;;;;;16.20;57.00;;;12.10;100.00;95838.03;4992177;28;20004;-51
2023/10/03 02:02:57;;;;;;;;;;;16.20;57.00;;;12.17;100.00;95834.00;4994064;28;19916;-47
2023/10/03 02:05:25;;;;;;;;;;;16.20;57.10;;;12.22;100.00;95839.34;4993885;28;19996;-46
2023/10/03 02:10:40;;;;;;;;;;;16.30;57.20;;;12.27;100.00;95842.00;4993045;28;20021;-46
2023/10/03 02:13:12;;;;;;;;;;;16.30;57.20;;;12.27;100.00;95836.66;4992518;28;20379;-47
2023/10/03 02:15:42;;;;;;;;;;;16.30;57.10;;;12.25;100.00;95836.13;4993763;28;19917;-46
2023/10/03 02:18:12;;;;;;;;;;;16.30;57.10;;;12.24;100.00;95834.50;4992399;28;20394;-47
2023/10/03 02:20:52;;;;;;;;;;;16.30;57.10;;;12.23;100.00;95832.94;4992889;28;19918;-48
2023/10/03 02:23:22;;;;;;;;;;;16.30;57.10;;;12.23;100.00;95838.25;4992427;28;19960;-48
2023/10/03 02:25:49;;;;;;;;;;;16.30;57.10;;;12.21;100.00;95832.38;4993018;28;19909;-53
2023/10/03 02:28:18;;;;;;;;;;;16.30;57.10;;;12.19;100.00;95826.53;4993506;28;20266;-49
2023/10/03 02:30:47;;;;;;;;;;;16.30;57.10;;;12.18;100.00;95829.44;4992274;28;19919;-50
2023/10/03 02:33:14;;;;;;;;;;;16.30;57.20;;;12.18;100.00;95829.44;4993135;28;20059;-51
2023/10/03 02:35:48;;;;;;;;;;;16.30;57.30;;;12.21;100.00;95829.72;4993653;28;19916;-51
2023/10/03 02:38:24;;;;;;;;;;;16.30;57.30;;;12.16;100.00;95827.06;4992632;28;19917;-52
2023/10/03 02:41:00;;;;;;;;;;;16.30;57.30;;;12.14;100.00;95823.84;4991068;28;20265;-49
2023/10/03 02:43:31;;;;;;;;;;;16.30;57.30;;;12.14;100.00;95820.38;4986793;28;20292;-47
2023/10/03 02:45:59;;;;;;;;;;;16.30;57.30;;;12.13;100.00;95810.78;4993725;28;19916;-49
2023/10/03 02:48:25;;;;;;;;;;;16.30;57.40;;;12.12;100.00;95814.50;4993019;28;19910;-47
2023/10/03 02:50:52;;;;;;;;;;;16.30;57.40;;;12.12;100.00;95817.97;4993726;28;19910;-47
2023/10/03 02:53:21;;;;;;;;;;;16.30;57.40;;;12.17;100.00;95822.53;4993380;28;19921;-50
2023/10/03 02:55:52;;;;;;;;;;;16.30;57.50;;;12.17;100.00;95817.97;4992816;28;19963;-48
2023/10/03 02:58:20;;;;;;;;;;;16.30;57.50;;;12.19;100.00;95815.03;4993263;28;19949;-50
2023/10/03 03:00:53;;;;;;;;;;;16.30;57.60;;;12.28;100.00;95818.75;4992611;28;19920;-47
2023/10/03 03:03:20;;;;;;;;;;;16.30;57.60;;;12.29;100.00;95817.69;4993711;28;20012;-46
2023/10/03 03:05:48;;;;;;;;;;;16.30;57.70;;;12.27;100.00;95811.81;4993490;28;20383;-52
2023/10/03 03:10:58;;;;;;;;;;;16.30;57.80;;;12.27;100.00;95817.97;4993034;28;19924;-48
2023/10/03 03:13:31;;;;;;;;;;;16.40;57.70;;;12.34;100.00;95814.22;4992590;28;20315;-47
2023/10/03 03:16:01;;;;;;;;;;;16.40;57.70;;;12.37;100.00;95821.69;4993029;28;20479;-47
2023/10/03 03:18:32;;;;;;;;;;;16.40;57.70;;;12.32;100.00;95816.38;4992307;28;19914;-50
2023/10/03 03:20:59;;;;;;;;;;;16.40;57.80;;;12.23;100.00;95816.91;4989335;28;19920;-46
2023/10/03 03:23:42;;;;;;;;;;;16.40;57.70;;;12.20;100.00;95821.97;4993412;28;19909;-51
2023/10/03 03:28:45;;;;;;;;;;;16.30;57.60;;;12.07;100.00;95831.34;4993422;28;20315;-51
2023/10/03 03:33:56;;;;;;;;;;;16.20;57.70;;;12.07;100.00;95831.34;4992533;28;19910;-46
2023/10/03 03:36:30;;;;;;;;;;;16.20;57.80;;;12.01;100.00;95825.19;4992172;28;20017;-48
2023/10/03 03:39:15;;;;;;;;;;;16.20;57.80;;;12.01;100.00;95829.75;4993235;28;19981;-46
2023/10/03 03:41:42;;;;;;;;;;;16.20;57.90;;;11.93;100.00;95835.59;4992217;28;19925;-47
2023/10/03 03:44:12;;;;;;;;;;;16.10;57.90;;;11.93;100.00;95832.94;4991672;28;20004;-49
2023/10/03 03:46:43;;;;;;;;;;;16.10;57.90;;;11.92;100.00;95834.00;4992751;28;19920;-51
2023/10/03 03:49:09;;;;;;;;;;;16.10;58.00;;;11.82;100.00;95834.78;4991069;28;20402;-50
2023/10/03 03:51:36;;;;;;;;;;;16.00;57.90;;;11.75;100.00;95829.69;4992786;28;19920;-52
2023/10/03 03:54:05;;;;;;;;;;;16.00;58.00;;;11.80;100.00;95827.00;4992477;28;19913;-53
2023/10/03 03:56:33;;;;;;;;;;;16.00;58.20;;;11.79;100.00;95825.41;4992409;28;19910;-56
2023/10/03 03:58:59;;;;;;;;;;;16.00;58.20;;;11.72;100.00;95821.41;5007841;28;20035;-54
2023/10/03 04:01:26;;;;;;;;;;;15.90;58.20;;;11.68;100.00;95821.13;4987496;28;28134;-56
2023/10/03 04:03:53;;;;;;;;;;;15.90;58.20;;;11.63;100.00;95823.00;4982784;28;19909;-54
2023/10/03 04:06:20;;;;;;;;;;;15.80;58.10;;;11.58;100.00;95821.91;4987522;28;20004;-51
2023/10/03 04:08:46;;;;;;;;;;;15.80;58.20;;;11.51;100.00;95816.06;4990968;28;20391;-49
2023/10/03 04:11:15;;;;;;;;;;;15.80;58.30;;;11.45;100.00;95813.63;4992277;28;19918;-49
2023/10/03 04:13:49;;;;;;;;;;;15.70;58.20;;;11.42;100.00;95812.28;4991278;28;19913;-49
2023/10/03 04:16:26;;;;;;;;;;;15.70;58.30;;;11.33;100.00;95808.53;4985231;28;20339;-50
2023/10/03 04:18:51;;;;;;;;;;;15.70;58.40;;;11.27;100.00;95807.72;4986433;28;19916;-49
2023/10/03 04:21:21;;;;;;;;;;;15.60;58.40;;;11.30;100.00;95814.41;4990918;28;19917;-56
2023/10/03 04:23:49;;;;;;;;;;;15.50;58.50;;;11.29;100.00;95810.94;4992462;28;20322;-54
2023/10/03 04:26:14;;;;;;;;;;;15.50;58.60;;;11.35;100.00;95817.09;4991546;28;19913;-52
2023/10/03 04:28:40;;;;;;;;;;;15.50;58.70;;;11.37;100.00;95816.81;4992520;28;20458;-56
2023/10/03 04:31:07;;;;;;;;;;;15.50;58.80;;;11.34;100.00;95818.97;4991410;28;20323;-56
2023/10/03 04:33:33;;;;;;;;;;;15.50;58.90;;;11.34;100.00;95821.63;4985837;28;19925;-56
2023/10/03 04:36:04;;;;;;;;;;;15.50;58.90;;;11.32;100.00;95815.75;4992255;28;19909;-53
2023/10/03 04:38:31;;;;;;;;;;;15.50;58.90;;;11.34;100.00;95810.97;4991438;28;19909;-53
2023/10/03 04:40:59;;;;;;;;;;;15.50;59.40;;;11.33;100.00;95814.66;4990986;28;19920;-53
2023/10/03 04:43:27;;;;;;;;;;;15.50;59.00;;;11.28;100.00;95811.19;4991104;28;20295;-54
2023/10/03 04:45:53;;;;;;;;;;;15.50;59.10;;;11.29;100.00;95802.94;4992465;28;19964;-53
2023/10/03 04:48:18;;;;;;;;;;;15.50;59.10;;;11.35;100.00;95811.75;4991262;28;20390;-54
2023/10/03 04:50:44;;;;;;;;;;;15.50;59.20;;;11.30;100.00;95812.53;4991871;28;19909;-53
2023/10/03 04:53:14;;;;;;;;;;;15.50;59.20;;;11.35;100.00;95811.75;4993327;28;20000;-56
2023/10/03 04:55:44;;;;;;;;;;;15.50;59.30;;;11.36;100.00;95810.69;4995156;28;20265;-54
2023/10/03 04:58:12;;;;;;;;;;;15.50;59.30;;;11.31;100.00;95811.47;4995810;28;20004;-52
2023/10/03 05:00:38;;;;;;;;;;;15.50;59.30;;;11.33;100.00;95808.53;4994557;28;20375;-52
2023/10/03 05:03:09;;;;;;;;;;;15.50;59.30;;;11.28;100.00;95806.69;4994101;28;19909;-50
2023/10/03 05:05:37;;;;;;;;;;;15.50;59.30;;;11.25;100.00;95807.19;4995674;28;19917;-49
2023/10/03 05:08:03;;;;;;;;;;;15.50;59.90;;;11.22;100.00;95804.22;4994976;28;20291;-49
2023/10/03 05:10:30;;;;;;;;;;;15.50;59.40;;;11.22;100.00;95809.56;4995015;28;20338;-49
2023/10/03 05:12:59;;;;;;;;;;;15.50;59.40;;;11.22;100.00;95801.56;4995052;28;19913;-49
2023/10/03 05:15:26;;;;;;;;;;;15.40;59.30;;;11.18;100.00;95805.84;4995552;28;19931;-52
2023/10/03 05:17:56;;;;;;;;;;;15.40;59.40;;;11.20;100.00;95806.38;4995618;28;20020;-54
2023/10/03 05:20:34;;;;;;;;;;;15.40;59.50;;;11.17;100.00;95809.56;4994231;28;19917;-50
2023/10/03 05:23:04;;;;;;;;;;;15.40;59.50;;;11.20;100.00;95814.38;4995432;28;19909;-55
2023/10/03 05:25:36;;;;;;;;;;;15.40;59.60;;;11.25;100.00;95811.72;4994851;28;20380;-53
2023/10/03 05:28:03;;;;;;;;;;;15.40;59.60;;;11.27;100.00;95820.25;4995430;28;19959;-56
2023/10/03 05:30:30;;;;;;;;;;;15.40;59.60;;;11.27;100.00;95812.25;4985958;28;19919;-56
2023/10/03 05:32:56;;;;;;;;;;;15.40;59.60;;;11.30;100.00;95817.88;4995083;28;20016;-56
2023/10/03 05:35:22;;;;;;;;;;;15.40;59.70;;;11.32;100.00;95817.63;4994834;28;20015;-55
2023/10/03 05:37:50;;;;;;;;;;;15.50;59.70;;;11.32;100.00;95823.75;4992227;28;19913;-56
2023/10/03 05:40:20;;;;;;;;;;;15.50;59.70;;;11.34;100.00;95823.47;4995018;28;19917;-54
2023/10/03 05:42:50;;;;;;;;;;;15.50;59.70;;;11.36;100.00;95821.34;4986624;28;19910;-56
2023/10/03 05:45:17;;;;;;;;;;;15.60;59.80;;;11.36;100.00;95821.34;4993603;28;19917;-56
2023/10/03 05:47:46;;;;;;;;;;;15.60;59.80;;;11.41;100.00;95821.38;4994560;28;19914;-54
2023/10/03 05:50:22;;;;;;;;;;;15.60;59.80;;;11.51;100.00;95825.91;4993224;28;19909;-52
2023/10/03 05:52:48;;;;;;;;;;;15.60;59.90;;;11.57;100.00;95824.88;4990915;28;20318;-52
2023/10/03 05:55:14;;;;;;;;;;;15.70;60.00;;;11.55;100.00;95819.78;4986963;28;20368;-54
2023/10/03 05:57:42;;;;;;;;;;;15.70;60.00;;;11.58;100.00;95834.47;4984570;28;19916;-56
2023/10/03 06:00:13;;;;;;;;;;;15.80;60.00;;;11.62;100.00;95832.06;4984909;28;20276;-56
2023/10/03 06:02:39;;;;;;;;;;;15.80;59.90;;;11.61;100.00;95831.28;4980568;28;19910;-54
2023/10/03 06:05:11;;;;;;;;;;;15.90;59.90;;;11.70;100.00;95839.56;4983053;28;19930;-50
2023/10/03 06:07:37;;;;;;;;;;;15.90;60.00;;;11.72;100.00;95835.56;4990103;28;20004;-51
2023/10/03 06:10:04;;;;;;;;;;;16.00;60.00;;;11.81;100.00;95833.16;5008464;28;20002;-51
2023/10/03 06:12:33;;;;;;;;;;;16.00;60.00;;;11.87;100.00;95836.66;4993158;28;20418;-52
2023/10/03 06:14:59;;;;;;;;;;;16.10;60.00;;;11.92;100.00;95836.66;4993881;28;19920;-51
2023/10/03 06:17:25;;;;;;;;;;;16.10;60.00;;;12.02;100.00;95842.00;4993463;28;19913;-47
2023/10/03 06:19:51;;;;;;;;;;;16.20;60.10;;;12.10;100.00;95848.69;4992748;28;19936;-48
2023/10/03 06:22:17;;;;;;;;;;;16.30;60.10;;;12.18;100.00;95842.81;5008684;28;19910;-47
2023/10/03 06:24:43;;;;;;;;;;;16.30;60.10;;;12.25;100.00;95844.16;4992656;28;19919;-49
2023/10/03 06:27:10;;;;;;;;;;;16.40;60.10;;;12.36;100.00;95855.63;4993424;28;19913;-50
2023/10/03 06:29:40;;;;;;;;;;;16.50;60.10;;;12.50;100.00;95856.69;4993415;28;19916;-48
2023/10/03 06:32:07;;;;;;;;;;;16.60;60.20;;;12.58;100.00;95854.53;4991952;28;19909;-49
2023/10/03 06:34:33;;;;;;;;;;;16.70;60.20;;;12.67;100.00;95860.91;4987625;28;19909;-50
2023/10/03 06:36:59;;;;;;;;;;;16.80;60.10;;;12.76;100.00;95861.97;4990799;28;19921;-47
2023/10/03 06:39:25;;;;;;;;;;;16.90;60.10;;;12.86;100.00;95855.78;4992734;28;19913;-48
2023/10/03 06:41:55;;;;;;;;;;;17.00;60.10;;;12.94;100.00;95857.88;4993279;28;19917;-50
2023/10/03 06:44:21;;;;;;;;;;;17.10;60.10;;;13.02;100.00;95861.88;4991111;28;20410;-49
2023/10/03 06:46:47;;;;;;;;;;;17.20;60.80;;;13.10;100.00;95867.47;4993261;28;19924;-52
2023/10/03 06:49:14;;;;;;;;;;;17.30;60.00;;;13.20;100.00;95863.97;4991983;28;19909;-47
2023/10/03 06:51:40;;;;;;;;;;;17.50;60.00;;;13.35;100.00;95868.44;5008234;28;19909;-49
2023/10/03 06:54:06;;;;;;;;;;;17.60;59.90;;;13.48;100.00;95865.19;4992959;28;19909;-49
2023/10/03 06:56:33;;;;;;;;;;;17.80;59.90;;;13.58;100.00;95862.47;4991727;28;19963;-48
2023/10/03 06:59:05;;;;;;;;;;;17.90;59.70;;;13.70;100.00;95866.69;4992815;28;19913;-49
2023/10/03 07:01:31;;;;;;;;;;;18.10;59.70;;;13.81;100.00;95862.84;5007433;28;19913;-48
2023/10/03 07:03:57;;;;;;;;;;;18.30;59.60;;;13.97;100.00;95869.69;4992585;28;19909;-50
2023/10/03 07:06:24;;;;;;;;;;;18.50;59.40;;;14.20;100.00;95865.53;4990874;28;19921;-51
2023/10/03 07:08:51;;;;;;;;;;;18.80;59.20;;;14.51;100.00;95860.75;4989910;28;19940;-47
2023/10/03 07:11:17;;;;;;;;;;;19.20;59.00;;;14.94;100.00;95865.41;4993088;28;19987;-48
2023/10/03 07:13:45;;;;;;;;;;;19.70;58.70;;;15.46;98.25;95863.72;4992139;28;19913;-50
2023/10/03 07:16:11;;;;;;;;;;;20.20;58.50;;;16.03;90.49;95869.91;4992804;28;19909;-48
2023/10/03 07:18:39;;;;;;;;;;;20.70;58.20;;;16.62;86.58;95875.69;4992240;28;20252;-48
2023/10/03 07:21:05;;;;;;;;;;;21.30;57.80;;;17.22;81.83;95875.69;4993169;28;19917;-49
2023/10/03 07:23:31;;;;;;;;;;;21.80;57.30;;;17.75;78.62;95877.81;4993362;28;20279;-49
2023/10/03 07:25:57;;;;;;;;;;;22.30;56.80;;;18.26;75.40;95873.19;4989343;28;19916;-50
2023/10/03 07:28:23;;;;;;;;;;;22.80;56.20;;;18.78;76.71;95872.75;4992937;28;19909;-50
2023/10/03 07:30:49;;;;;;;;;;;23.30;55.70;;;19.19;72.51;95877.88;4992152;28;19944;-54
2023/10/03 07:33:15;;;;;;;;;;;23.70;55.20;;;19.53;69.85;95885.28;4986742;28;19924;-50
2023/10/03 07:35:42;;;;;;;;;;;24.10;54.80;;;19.71;67.98;95882.63;4993062;28;19909;-51
2023/10/03 07:38:12;;;;;;;;;;;24.30;54.30;;;19.91;68.49;95879.34;4991778;28;19966;-51
2023/10/03 07:40:41;;;;;;;;;;;24.40;53.80;;;19.99;66.25;95875.03;4992796;28;20392;-51
2023/10/03 07:43:10;;;;;;;;;;;24.50;53.40;;;20.23;65.66;95885.38;4992064;28;19917;-50
2023/10/03 07:45:40;;;;;;;;;;;24.70;53.10;;;20.55;65.86;95884.91;4993112;28;19909;-49
2023/10/03 07:48:10;;;;;;;;;;;25.00;52.80;;;20.99;64.73;95890.22;4992906;28;20340;-49
2023/10/03 07:50:37;;;;;;;;;;;25.50;52.60;;;21.44;63.44;95884.34;4990646;28;20346;-51
2023/10/03 07:53:11;;;;;;;;;;;26.00;52.40;;;21.94;60.71;95892.50;4992853;28;19913;-51
2023/10/03 07:55:39;;;;;;;;;;;26.40;52.00;;;22.35;57.62;95876.56;4989642;28;20443;-48
2023/10/03 07:58:05;;;;;;;;;;;26.90;51.50;;;22.72;56.39;95885.66;4992841;28;19916;-51
2023/10/03 08:00:33;;;;;;;;;;;27.30;50.80;;;23.08;55.52;95884.94;4991451;28;19917;-49
2023/10/03 08:02:59;;;;;;;;;;;27.70;50.30;;;23.49;54.40;95885.09;4990870;28;19992;-51
2023/10/03 08:05:27;;;;;;;;;;;28.10;49.90;;;23.87;53.37;95884.75;4992592;28;20001;-51
2023/10/03 08:07:55;;;;;;;;;;;28.40;49.60;;;24.06;51.54;95881.41;4988434;28;19916;-57
2023/10/03 08:10:21;;;;;;;;;;;28.80;48.90;;;24.33;49.51;95881.81;4992200;28;19921;-55
2023/10/03 08:12:52;;;;;;;;;;;29.10;48.50;;;24.67;50.03;95883.19;4990525;28;19959;-56
2023/10/03 08:15:20;;;;;;;;;;;29.50;48.10;;;24.72;47.99;95882.13;4990893;28;20016;-54
2023/10/03 08:17:53;;;;;;;;;;;29.80;47.20;;;24.84;48.26;95887.50;4992483;28;19917;-53
2023/10/03 08:20:21;;;;;;;;;;;30.00;46.40;;;25.21;46.86;95893.56;4990911;28;19914;-53
2023/10/03 08:22:53;;;;;;;;;;;30.30;46.00;;;25.58;45.73;95885.13;4992624;28;20284;-51
2023/10/03 08:25:27;;;;;;;;;;;30.60;45.70;;;25.92;45.77;95888.25;4991585;28;19943;-51
2023/10/03 08:27:55;;;;;;;;;;;30.90;45.50;;;26.27;45.35;95897.19;4993295;28;19933;-54
2023/10/03 08:30:30;;;;;;;;;;;31.20;45.10;;;26.32;43.23;95890.66;4985948;28;19909;-52
2023/10/03 08:33:04;;;;;;;;;;;31.50;44.50;;;26.41;42.49;95888.50;4991312;28;19910;-54
2023/10/03 08:35:35;;;;;;;;;;;31.70;43.80;;;26.52;42.47;95894.22;4996969;28;20000;-55
2023/10/03 08:38:13;;;;;;;;;;;31.80;43.30;;;26.68;42.07;95891.41;4996432;28;19909;-57
2023/10/03 08:40:49;;;;;;;;;;;32.10;42.90;;;26.96;42.53;95893.91;4996809;28;19920;-56
2023/10/03 08:43:25;;;;;;;;;;;32.30;42.80;;;27.20;41.72;95896.31;4993978;28;20059;-49
2023/10/03 08:45:57;;;;;;;;;;;32.70;42.70;;;27.40;40.85;95896.25;4995732;28;19917;-51
2023/10/03 08:48:29;;;;;;;;;;;33.00;42.30;;;27.42;40.82;95897.47;4987791;28;19956;-54
2023/10/03 08:50:58;;;;;;;;;;;33.20;41.70;;;27.50;40.33;95894.84;4986767;28;20288;-55
2023/10/03 08:53:28;;;;;;;;;;;33.40;41.20;;;27.86;39.41;95898.94;4995738;28;19917;-56
2023/10/03 08:55:59;;;;;;;;;;;33.60;41.10;;;27.99;39.77;95897.56;4995411;28;19913;-56
2023/10/03 08:58:28;;;;;;;;;;;33.80;40.90;;;28.06;39.68;95899.63;4996440;28;19929;-51
2023/10/03 09:01:01;;;;;;;;;;;34.00;40.60;;;28.06;39.11;95907.84;4995078;28;19920;-52
2023/10/03 09:03:47;;;;;;;;;;;34.30;40.30;;;28.32;38.89;95902.31;4993677;28;20319;-49
2023/10/03 09:06:22;;;;;;;;;;;34.50;39.90;;;28.41;39.10;95893.84;4993532;28;19910;-56
2023/10/03 09:09:08;;;;;;;;;;;34.70;39.70;;;28.49;39.28;95901.00;4993167;28;19917;-51
2023/10/03 09:11:37;;;;;;;;;;;34.60;39.60;;;28.59;40.47;95905.03;4995633;28;20277;-51
2023/10/03 09:14:07;;;;;;;;;;;34.60;39.60;;;28.59;39.78;95907.78;4995065;28;20291;-54
2023/10/03 09:16:38;;;;;;;;;;;34.70;39.50;;;28.46;40.00;95900.97;4995799;28;20376;-54
2023/10/03 09:19:06;;;;;;;;;;;34.80;39.30;;;28.45;39.80;95902.09;4994919;28;20418;-57
2023/10/03 09:21:33;;;;;;;;;;;35.00;39.10;;;28.68;39.74;95905.53;4995836;28;20398;-52
2023/10/03 09:24:12;;;;;;;;;;;35.30;38.80;;;28.84;38.69;95894.34;4995723;28;20295;-51
2023/10/03 09:26:51;;;;;;;;;;;35.50;38.50;;;28.40;38.23;95892.28;4990856;28;19971;-52
2023/10/03 09:29:31;;;;;;;;;;;35.70;37.00;;;28.40;37.89;95891.47;4995558;28;19917;-51
2023/10/03 09:32:16;;;;;;;;;;;35.70;36.60;;;28.24;38.83;95892.44;4994603;28;19935;-51
2023/10/03 09:34:45;;;;;;;;;;;35.50;36.30;;;27.56;39.30;95887.91;4991785;28;19910;-51
2023/10/03 09:37:11;;;;;;;;;;;35.20;36.20;;;27.35;40.81;95885.59;4991491;28;19920;-52
2023/10/03 09:39:51;;;;;;;;;;;34.80;36.20;;;27.09;41.57;95886.31;4990832;28;19909;-49
2023/10/03 09:42:23;;;;;;;;;;;34.30;36.10;;;26.93;41.97;95886.41;5004915;28;19921;-51
2023/10/03 09:44:50;;;;;;;;;;;33.80;36.20;;;26.45;41.96;95883.09;4995506;28;19995;-51
2023/10/03 09:47:27;;;;;;;;;;;33.40;36.10;;;26.41;43.01;95888.50;4995223;28;19957;-51
2023/10/03 09:50:03;;;;;;;;;;;33.10;36.00;;;26.42;42.70;95878.38;4986244;28;20343;-49
2023/10/03 09:52:30;;;;;;;;;;;32.80;36.10;;;26.51;42.42;95881.69;4989893;28;19909;-52
2023/10/03 09:55:00;;;;;;;;;;;32.80;36.20;;;26.76;41.68;95885.72;4982253;28;19917;-52
2023/10/03 09:57:30;;;;;;;;;;;32.90;36.20;;;26.89;42.07;95869.16;4988137;28;19909;-49
2023/10/03 09:59:56;;;;;;;;;;;32.90;36.10;;;27.07;41.90;95878.47;4983233;28;19936;-49
2023/10/03 10:02:31;;;;;;;;;;;32.80;36.30;;;26.99;41.09;95876.75;4992974;28;19944;-51
2023/10/03 10:05:19;;;;;;;;;;;32.80;36.30;;;26.88;41.50;95879.28;4993768;28;20323;-50
2023/10/03 10:08:27;;;;;;;;;;;32.80;36.30;;;26.98;42.27;95875.16;4983631;28;19909;-48
2023/10/03 10:11:09;;;;;;;;;;;32.70;36.30;;;26.59;40.99;95886.16;4994286;28;19917;-51
2023/10/03 10:13:37;;;;;;;;;;;32.70;35.80;;;26.69;40.86;95877.38;4993958;28;19913;-50
2023/10/03 10:16:13;;;;;;;;;;;32.70;35.70;;;26.53;41.51;95877.47;4994834;28;19910;-52
2023/10/03 10:18:45;;;;;;;;;;;32.70;35.40;;;26.68;41.80;95877.75;4993881;28;20418;-50
2023/10/03 10:21:37;;;;;;;;;;;32.70;35.20;;;26.89;40.87;95875.41;4994450;28;19970;-50
2023/10/03 10:24:20;;;;;;;;;;;33.00;35.10;;;27.17;40.99;95871.63;4994822;28;19972;-50
2023/10/03 10:26:55;;;;;;;;;;;33.40;34.70;;;27.46;39.69;95878.38;4994372;28;19913;-49
2023/10/03 10:29:24;;;;;;;;;;;33.80;34.10;;;27.51;38.88;95869.84;4994367;28;20363;-52
2023/10/03 10:31:58;;;;;;;;;;;33.90;33.90;;;27.30;39.73;95872.25;4992829;28;19917;-49
2023/10/03 10:34:27;;;;;;;;;;;33.70;33.90;;;27.20;40.02;95871.72;4994095;28;19918;-49
2023/10/03 10:37:03;;;;;;;;;;;33.40;33.70;;;27.25;40.07;95864.34;4993102;28;19914;-54
2023/10/03 10:40:09;;;;;;;;;;;33.50;33.70;;;27.26;39.41;95871.38;4992944;28;20047;-55
2023/10/03 10:42:59;;;;;;;;;;;33.70;33.40;;;27.95;38.76;95874.81;4992904;28;19931;-52
2023/10/03 10:45:27;;;;;;;;;;;34.10;33.40;;;28.25;37.70;95869.34;4993956;28;19924;-51
2023/10/03 10:47:55;;;;;;;;;;;34.60;33.10;;;28.66;38.02;95869.47;4993795;28;19935;-52
2023/10/03 10:50:26;;;;;;;;;;;35.10;33.10;;;28.89;36.52;95876.75;4986999;28;19913;-51
2023/10/03 10:52:56;;;;;;;;;;;35.50;32.90;;;28.60;37.19;95863.53;4985876;28;19964;-51
2023/10/03 10:55:24;;;;;;;;;;;35.40;32.60;;;28.27;38.17;95853.34;4987374;28;19916;-51
2023/10/03 10:58:12;;;;;;;;;;;35.10;32.50;;;28.48;37.90;95852.06;4985264;28;20028;-48
2023/10/03 11:00:39;;;;;;;;;;;35.10;32.40;;;28.71;37.38;95854.66;4979432;28;19921;-50
2023/10/03 11:03:07;;;;;;;;;;;35.40;32.40;;;28.30;37.03;95854.56;4986727;28;19960;-54
2023/10/03 11:05:48;;;;;;;;;;;35.50;31.70;;;28.25;37.54;95841.97;4984981;28;20295;-54
2023/10/03 11:08:15;;;;;;;;;;;35.20;31.60;;;28.07;37.90;95840.97;4998262;28;20376;-56
2023/10/03 11:10:49;;;;;;;;;;;35.00;31.70;;;27.95;37.20;95832.97;4992129;28;19943;-51
2023/10/03 11:13:14;;;;;;;;;;;35.10;31.70;;;27.47;38.25;95830.72;4990948;28;19909;-56
2023/10/03 11:15:51;;;;;;;;;;;34.80;31.30;;;27.60;38.46;95823.09;4992600;28;19909;-54
2023/10/03 11:18:31;;;;;;;;;;;34.80;31.50;;;27.34;38.86;95826.59;4991481;28;20265;-58
2023/10/03 11:21:00;;;;;;;;;;;34.50;31.30;;;27.49;38.85;95822.16;4984577;28;19961;-54
2023/10/03 11:23:26;;;;;;;;;;;34.30;31.20;;;27.97;38.94;95820.50;4990828;28;19909;-49
2023/10/03 11:26:01;;;;;;;;;;;34.40;31.60;;;28.14;37.84;95824.63;4991534;28;20359;-53
2023/10/03 11:28:28;;;;;;;;;;;34.50;31.80;;;28.10;37.64;95819.09;4992549;28;19952;-49
2023/10/03 11:31:05;;;;;;;;;;;34.50;31.70;;;28.06;38.49;95812.78;4999622;28;19913;-48
2023/10/03 11:33:52;;;;;;;;;;;34.40;31.60;;;27.99;38.84;95818.19;4985400;28;19909;-53
2023/10/03 11:36:17;;;;;;;;;;;34.50;31.70;;;28.29;38.44;95806.41;4987481;28;19921;-57
2023/10/03 11:38:49;;;;;;;;;;;34.70;32.30;;;28.25;37.96;95798.16;4991382;28;19914;-56
2023/10/03 11:41:32;;;;;;;;;;;34.80;31.60;;;28.39;38.47;95805.75;4986735;28;19960;-51